Time;durP1;ratioP1;P1;durP2;ratioP2;P2;SDS_P1;SDS_P2;PMS_P1;PMS_P2;Temp;Humidity;BMP_temperature;BMP_pressure;BME280_temperature;BME280_humidity;BME280_pressure;Samples;Min_cycle;Max_cycle;Signal;HPM_P1;HPM_P2
2022/04/26 03:38:11;;;;;;;530.92;70.13;;;5.20;99.90;;;;;;5087095;28;20499;-88
2022/04/26 03:40:38;;;;;;;212.63;36.95;;;5.20;99.90;;;;;;5075352;28;20395;-89
2022/04/26 03:43:06;;;;;;;127.10;14.60;;;5.20;99.90;;;;;;5093147;28;20400;-87
2022/04/26 03:45:34;;;;;;;223.63;29.13;;;5.20;99.90;;;;;;5093315;28;20428;-88
2022/04/26 03:48:02;;;;;;;338.77;50.60;;;5.20;99.90;;;;;;5093009;28;20384;-89
2022/04/26 03:50:30;;;;;;;259.42;44.40;;;5.10;99.90;;;;;;5093034;28;20434;-87
2022/04/26 03:52:58;;;;;;;74.85;13.00;;;4.90;99.90;;;;;;5092890;28;20396;-88
2022/04/26 03:55:25;;;;;;;249.43;27.98;;;4.80;99.90;;;;;;5092739;28;20978;-88
2022/04/26 03:57:53;;;;;;;203.40;38.85;;;4.90;99.90;;;;;;5092875;28;20392;-87
2022/04/26 04:00:21;;;;;;;52.50;7.28;;;4.90;99.90;;;;;;5074296;28;20898;-88
2022/04/26 04:02:49;;;;;;;528.97;89.07;;;4.90;99.90;;;;;;5092649;28;20491;-88
2022/04/26 04:05:17;;;;;;;20.57;4.93;;;4.90;99.90;;;;;;5092597;28;20396;-88
2022/04/26 04:07:45;;;;;;;343.10;74.30;;;4.90;99.90;;;;;;5080955;28;20398;-87
2022/04/26 04:10:14;;;;;;;18.38;4.47;;;4.90;99.90;;;;;;5088752;28;20398;-85
2022/04/26 04:12:42;;;;;;;163.40;31.38;;;4.90;99.90;;;;;;5074796;28;20427;-86
2022/04/26 04:15:09;;;;;;;112.70;15.80;;;4.80;99.90;;;;;;5079693;28;20393;-86
2022/04/26 04:17:38;;;;;;;44.87;6.90;;;4.70;99.90;;;;;;5075261;28;20455;-85
2022/04/26 04:20:06;;;;;;;69.10;11.00;;;4.60;99.90;;;;;;5065302;28;20917;-86
2022/04/26 04:22:39;;;;;;;265.80;33.83;;;4.70;99.90;;;;;;5105753;28;20484;-87
2022/04/26 04:25:07;;;;;;;171.50;25.10;;;4.70;99.90;;;;;;5091011;28;20388;-86
2022/04/26 04:27:35;;;;;;;192.00;33.80;;;4.70;99.90;;;;;;5071073;28;20449;-86
2022/04/26 04:30:03;;;;;;;296.57;60.60;;;4.70;99.90;;;;;;5074431;28;20386;-86
2022/04/26 04:32:32;;;;;;;48.70;7.05;;;4.60;99.90;;;;;;5088804;28;20384;-85
2022/04/26 04:35:00;;;;;;;218.45;34.70;;;4.60;99.90;;;;;;5072233;28;20448;-85
2022/04/26 04:37:28;;;;;;;294.25;32.42;;;4.60;99.90;;;;;;5058115;28;20497;-86
2022/04/26 04:39:55;;;;;;;216.82;34.05;;;4.60;99.90;;;;;;5076521;28;20422;-87
2022/04/26 04:42:23;;;;;;;521.42;109.05;;;4.60;99.90;;;;;;5089861;28;20900;-87
2022/04/26 04:44:51;;;;;;;365.03;66.67;;;4.60;99.90;;;;;;5072259;28;20384;-86
2022/04/26 04:47:18;;;;;;;326.27;59.10;;;4.50;99.90;;;;;;5075298;28;20844;-86
2022/04/26 04:49:46;;;;;;;412.48;53.40;;;4.60;99.90;;;;;;5074019;28;20537;-86
2022/04/26 04:52:14;;;;;;;274.02;43.72;;;4.60;99.90;;;;;;5078450;28;20436;-85
2022/04/26 04:54:42;;;;;;;233.20;31.48;;;4.50;99.90;;;;;;5087021;28;20400;-87
2022/04/26 04:57:10;;;;;;;219.73;41.47;;;4.50;99.90;;;;;;5086067;28;20807;-86
2022/04/26 04:59:38;;;;;;;448.88;71.72;;;4.60;99.90;;;;;;5070441;28;20394;-87
2022/04/26 05:02:05;;;;;;;175.25;22.08;;;4.50;99.90;;;;;;5064477;28;20401;-87
2022/04/26 05:04:34;;;;;;;93.90;11.18;;;4.60;99.90;;;;;;5071905;28;20815;-85
2022/04/26 05:07:01;;;;;;;644.33;109.45;;;4.60;99.90;;;;;;5091653;28;20405;-87
2022/04/26 05:09:29;;;;;;;123.03;21.48;;;4.60;99.90;;;;;;5074373;28;20483;-86
2022/04/26 05:11:57;;;;;;;54.75;9.43;;;4.60;99.90;;;;;;5091397;28;20419;-85
2022/04/26 05:14:25;;;;;;;166.60;28.57;;;4.70;99.90;;;;;;5091303;28;20416;-87
2022/04/26 05:16:52;;;;;;;74.07;14.95;;;4.70;99.90;;;;;;5089673;28;20989;-87
2022/04/26 05:19:20;;;;;;;580.53;81.40;;;4.70;99.90;;;;;;5074360;28;20406;-85
2022/04/26 05:21:49;;;;;;;79.82;10.70;;;4.80;99.90;;;;;;5087744;28;20390;-87
2022/04/26 05:27:03;;;;;;;23.17;5.00;;;4.80;99.90;;;;;;5090882;28;20793;-87
2022/04/26 05:29:31;;;;;;;502.73;69.83;;;4.90;99.90;;;;;;5092161;28;20412;-87
2022/04/26 05:32:00;;;;;;;704.22;114.45;;;4.90;99.90;;;;;;5078967;28;20900;-86
2022/04/26 05:34:28;;;;;;;158.30;22.83;;;5.00;99.90;;;;;;5071003;28;20410;-86
2022/04/26 05:36:57;;;;;;;13.63;4.43;;;5.00;99.90;;;;;;5070825;28;20433;-85
2022/04/26 05:39:24;;;;;;;779.45;73.45;;;5.00;99.90;;;;;;5070885;28;20394;-86
2022/04/26 05:41:52;;;;;;;920.97;135.77;;;5.10;99.90;;;;;;5070853;28;20895;-86
2022/04/26 05:44:20;;;;;;;710.88;89.82;;;5.10;99.90;;;;;;5070872;28;20895;-86
2022/04/26 05:46:47;;;;;;;319.58;40.65;;;5.20;99.90;;;;;;5072821;28;20398;-86
2022/04/26 05:49:15;;;;;;;30.30;5.05;;;5.10;99.90;;;;;;5090733;28;20408;-86
2022/04/26 05:51:43;;;;;;;331.67;38.05;;;5.10;99.90;;;;;;5092009;28;20387;-86
2022/04/26 05:54:11;;;;;;;30.13;5.07;;;5.20;99.90;;;;;;5073981;28;20415;-86
2022/04/26 05:56:39;;;;;;;24.20;5.30;;;5.20;99.90;;;;;;5090237;28;20401;-86
2022/04/26 05:59:07;;;;;;;233.82;43.90;;;5.20;99.90;;;;;;5090479;28;20395;-86
2022/04/26 06:01:34;;;;;;;154.48;31.25;;;5.30;99.90;;;;;;5091703;28;20630;-86
2022/04/26 06:04:02;;;;;;;393.47;67.97;;;5.40;99.90;;;;;;5090233;28;20434;-87
2022/04/26 06:06:30;;;;;;;391.17;63.97;;;5.40;99.90;;;;;;5090485;28;20407;-85
2022/04/26 06:08:57;;;;;;;1284.38;116.97;;;5.40;99.90;;;;;;5070466;28;20877;-85
2022/04/26 06:11:26;;;;;;;84.80;9.40;;;5.50;99.90;;;;;;5070531;28;20396;-86
2022/04/26 06:13:53;;;;;;;152.65;25.50;;;5.60;99.90;;;;;;5061882;28;20396;-87
2022/04/26 06:16:21;;;;;;;266.43;33.10;;;5.60;99.90;;;;;;5070680;28;20447;-86
2022/04/26 06:18:49;;;;;;;217.75;30.27;;;5.60;99.90;;;;;;5070681;28;20383;-88
2022/04/26 06:21:16;;;;;;;282.00;33.67;;;5.60;99.90;;;;;;5070653;28;20397;-86
2022/04/26 06:23:44;;;;;;;706.97;106.07;;;5.70;99.90;;;;;;5076976;28;20394;-87
2022/04/26 06:26:12;;;;;;;386.08;69.25;;;5.70;99.90;;;;;;5084544;28;20449;-88
2022/04/26 06:28:40;;;;;;;683.53;77.33;;;5.90;99.90;;;;;;5072766;28;20979;-86
2022/04/26 06:31:08;;;;;;;306.65;45.30;;;5.80;99.90;;;;;;5070621;28;20405;-86
2022/04/26 06:33:36;;;;;;;808.58;88.10;;;5.80;99.90;;;;;;5070406;28;20387;-85
2022/04/26 06:36:06;;;;;;;291.35;36.70;;;6.00;99.90;;;;;;5079730;28;20401;-86
2022/04/26 06:38:33;;;;;;;383.67;46.30;;;6.20;99.90;;;;;;5086733;28;20408;-86
2022/04/26 06:41:02;;;;;;;1744.53;131.93;;;6.20;99.90;;;;;;5090176;28;20388;-86
2022/04/26 06:43:32;;;;;;;610.53;95.60;;;6.30;99.90;;;;;;5091439;28;20384;-87
2022/04/26 06:46:01;;;;;;;467.97;76.37;;;6.30;99.90;;;;;;5090026;28;20396;-86
2022/04/26 06:48:28;;;;;;;243.23;32.65;;;6.40;99.90;;;;;;5073588;28;20536;-86
2022/04/26 06:50:57;;;;;;;151.77;19.73;;;6.40;99.90;;;;;;5090004;28;20528;-87
2022/04/26 06:53:24;;;;;;;234.60;49.60;;;6.40;99.90;;;;;;5090095;28;20392;-86
2022/04/26 06:55:52;;;;;;;145.40;19.92;;;6.40;99.90;;;;;;5089863;28;20801;-87
2022/04/26 06:58:20;;;;;;;25.00;3.55;;;6.50;99.90;;;;;;5089948;28;20932;-86
2022/04/26 07:00:48;;;;;;;492.80;50.93;;;6.70;99.90;;;;;;5089975;28;20404;-88
2022/04/26 07:03:16;;;;;;;248.68;32.97;;;6.70;99.90;;;;;;5089995;28;20850;-86
2022/04/26 07:05:45;;;;;;;469.35;57.33;;;6.70;99.90;;;;;;5089965;28;20878;-87
2022/04/26 07:08:13;;;;;;;739.55;68.53;;;6.70;99.90;;;;;;5073290;28;20396;-86
2022/04/26 07:10:44;;;;;;;279.15;42.95;;;6.80;99.90;;;;;;5089485;28;20389;-87
2022/04/26 07:13:15;;;;;;;1274.97;111.85;;;6.80;99.90;;;;;;5089878;28;20445;-87
2022/04/26 07:15:43;;;;;;;268.48;38.97;;;6.80;99.90;;;;;;5090479;28;20392;-86
2022/04/26 07:18:14;;;;;;;402.88;48.33;;;6.80;99.90;;;;;;5093731;28;20400;-87
2022/04/26 07:20:44;;;;;;;1122.47;108.93;;;6.90;99.90;;;;;;5093159;28;20403;-86
2022/04/26 07:23:12;;;;;;;409.40;77.28;;;7.10;99.90;;;;;;5093519;28;20387;-86
2022/04/26 07:25:40;;;;;;;829.85;76.85;;;7.00;99.90;;;;;;5093516;28;20384;-86
2022/04/26 07:28:08;;;;;;;56.20;5.78;;;7.10;99.90;;;;;;5063625;28;20398;-87
2022/04/26 07:30:35;;;;;;;458.17;65.10;;;7.20;99.90;;;;;;5073745;28;20406;-86
2022/04/26 07:35:56;;;;;;;590.78;75.80;;;7.30;99.90;;;;;;5093235;28;20423;-87
2022/04/26 07:38:23;;;;;;;393.83;35.55;;;7.50;99.90;;;;;;5093329;28;20384;-87
2022/04/26 07:40:51;;;;;;;505.60;48.50;;;7.40;99.90;;;;;;5094230;28;20387;-86
2022/04/26 07:43:19;;;;;;;198.18;26.05;;;7.50;99.90;;;;;;5093207;28;20384;-87
2022/04/26 07:45:47;;;;;;;796.40;77.63;;;7.40;99.90;;;;;;5076372;28;20399;-87
2022/04/26 07:48:16;;;;;;;246.03;45.03;;;7.50;99.90;;;;;;5076120;28;20492;-87
2022/04/26 07:50:47;;;;;;;110.63;15.20;;;7.50;99.90;;;;;;5092850;28;20895;-87
2022/04/26 07:53:16;;;;;;;335.05;34.70;;;7.40;99.90;;;;;;5094110;28;20380;-88
2022/04/26 07:55:44;;;;;;;687.30;79.75;;;7.50;99.90;;;;;;5093824;28;20900;-88
2022/04/26 07:58:11;;;;;;;849.15;78.70;;;7.60;99.90;;;;;;5076019;28;20388;-86
2022/04/26 08:00:39;;;;;;;411.23;45.38;;;7.70;99.90;;;;;;5092750;28;20741;-86
2022/04/26 08:03:07;;;;;;;219.98;34.22;;;8.00;99.90;;;;;;5092666;28;20454;-87
2022/04/26 08:05:34;;;;;;;814.03;80.22;;;7.90;99.90;;;;;;5073442;28;20395;-89
2022/04/26 08:08:02;;;;;;;681.67;74.70;;;8.00;99.90;;;;;;5072931;28;20413;-89
2022/04/26 08:10:30;;;;;;;472.20;63.03;;;8.00;99.90;;;;;;5072916;28;20374;-90
2022/04/26 08:12:57;;;;;;;779.08;82.30;;;8.10;99.90;;;;;;5087880;28;20931;-88
2022/04/26 08:15:25;;;;;;;645.88;55.75;;;8.10;99.90;;;;;;5059843;28;20385;-89
2022/04/26 08:17:53;;;;;;;472.02;67.63;;;8.30;99.90;;;;;;5080526;28;20400;-89
2022/04/26 08:20:22;;;;;;;763.43;65.33;;;8.30;99.90;;;;;;5087497;28;20888;-87
2022/04/26 08:22:50;;;;;;;203.45;30.90;;;8.30;99.90;;;;;;5092213;28;20412;-88
2022/04/26 08:28:04;;;;;;;140.95;14.90;;;8.40;99.90;;;;;;5081330;28;20425;-88
2022/04/26 08:30:33;;;;;;;479.50;53.17;;;8.40;99.90;;;;;;5092580;28;20421;-88
2022/04/26 08:33:02;;;;;;;415.55;33.60;;;8.50;99.90;;;;;;5072343;28;20390;-89
2022/04/26 08:35:30;;;;;;;502.60;68.55;;;8.60;99.90;;;;;;5076800;28;20398;-88
2022/04/26 08:38:18;;;;;;;270.20;24.75;;;8.60;99.90;;;;;;5100871;28;20477;-89
2022/04/26 08:40:46;;;;;;;403.48;34.53;;;8.60;99.90;;;;;;5087825;28;20787;-88
2022/04/26 08:43:14;;;;;;;91.13;11.00;;;8.70;99.90;;;;;;5080352;28;20500;-89
2022/04/26 08:45:45;;;;;;;1133.35;89.40;;;8.60;99.90;;;;;;5075677;28;20404;-88
2022/04/26 08:50:59;;;;;;;495.75;50.42;;;8.90;99.90;;;;;;5071898;28;20390;-89
2022/04/26 08:53:29;;;;;;;655.10;92.38;;;9.00;99.90;;;;;;5098065;28;20405;-88
2022/04/26 08:56:01;;;;;;;403.95;39.50;;;8.90;99.90;;;;;;5081714;28;20903;-88
2022/04/26 08:58:34;;;;;;;295.48;48.20;;;9.00;99.90;;;;;;5060035;28;20426;-87
2022/04/26 09:01:18;;;;;;;137.10;14.90;;;9.10;99.90;;;;;;5055788;28;20455;-89
2022/04/26 09:03:55;;;;;;;199.90;27.08;;;9.20;99.90;;;;;;5071527;28;20390;-89
2022/04/26 09:06:36;;;;;;;353.33;35.80;;;9.20;99.90;;;;;;5067251;28;20386;-90
2022/04/26 09:09:14;;;;;;;449.00;49.93;;;9.30;99.90;;;;;;5072528;28;20389;-89
2022/04/26 09:11:44;;;;;;;549.05;69.93;;;9.30;99.90;;;;;;5071436;28;20397;-87
2022/04/26 09:14:30;;;;;;;1752.55;104.15;;;9.30;99.90;;;;;;5085333;28;20381;-89
2022/04/26 09:17:09;;;;;;;125.22;10.70;;;9.40;99.90;;;;;;5088462;28;20398;-88
2022/04/26 09:19:50;;;;;;;320.67;36.47;;;9.40;99.90;;;;;;5114253;27;20404;-88
2022/04/26 09:22:29;;;;;;;473.98;57.53;;;9.50;99.90;;;;;;5091276;28;20396;-88
2022/04/26 09:25:06;;;;;;;581.83;48.60;;;9.40;99.90;;;;;;5091285;28;20793;-87
2022/04/26 09:27:39;;;;;;;276.27;39.28;;;9.60;99.90;;;;;;5091057;28;20762;-88
2022/04/26 09:30:11;;;;;;;767.47;94.53;;;9.50;99.90;;;;;;5091335;28;20684;-89
2022/04/26 09:32:50;;;;;;;918.50;63.20;;;9.80;99.90;;;;;;5089737;28;20384;-88
2022/04/26 09:35:19;;;;;;;1019.03;68.85;;;9.70;99.90;;;;;;5071099;28;20382;-87
2022/04/26 09:37:47;;;;;;;287.75;35.83;;;9.70;99.90;;;;;;5070906;28;20493;-89
2022/04/26 09:40:26;;;;;;;83.70;10.77;;;9.80;99.90;;;;;;5070829;28;20438;-89
2022/04/26 09:42:54;;;;;;;395.63;40.50;;;9.90;99.90;;;;;;5073546;28;20480;-88
2022/04/26 09:45:21;;;;;;;613.30;49.58;;;10.00;99.90;;;;;;5090930;28;20469;-89
2022/04/26 09:47:51;;;;;;;389.85;44.28;;;10.10;99.90;;;;;;5080305;28;20398;-89
2022/04/26 09:50:18;;;;;;;451.00;55.60;;;10.10;99.90;;;;;;5065789;28;20390;-88
2022/04/26 09:52:46;;;;;;;602.83;65.82;;;10.20;99.90;;;;;;5106007;28;20842;-89
2022/04/26 09:55:14;;;;;;;175.70;16.50;;;10.10;99.90;;;;;;5086519;28;20447;-89
2022/04/26 09:57:43;;;;;;;119.10;13.73;;;10.10;99.90;;;;;;5090770;28;20384;-88
2022/04/26 10:00:13;;;;;;;613.77;59.27;;;10.10;99.90;;;;;;5057344;28;20404;-88
2022/04/26 10:02:53;;;;;;;157.73;23.80;;;10.20;99.90;;;;;;5109521;27;20443;-89
2022/04/26 10:05:22;;;;;;;631.50;65.87;;;10.20;99.90;;;;;;5084152;28;20481;-89
2022/04/26 10:07:53;;;;;;;2.00;0.93;;;10.50;99.90;;;;;;5081656;28;20404;-89
2022/04/26 10:10:23;;;;;;;61.70;5.43;;;10.40;99.90;;;;;;5090412;28;20388;-89
2022/04/26 10:15:37;;;;;;;950.75;87.90;;;10.10;99.90;;;;;;5081086;28;20388;-89
2022/04/26 10:18:43;;;;;;;426.23;41.47;;;10.30;99.90;;;;;;5061591;28;20409;-90
2022/04/26 10:21:31;;;;;;;683.03;62.72;;;10.50;99.90;;;;;;5072637;28;20432;-89
2022/04/26 10:24:02;;;;;;;580.50;74.77;;;10.60;99.90;;;;;;5066921;28;20941;-88
2022/04/26 10:26:31;;;;;;;568.00;58.25;;;10.70;99.90;;;;;;5066898;28;20451;-87
2022/04/26 10:29:00;;;;;;;231.48;22.67;;;10.50;99.90;;;;;;5070357;28;20486;-87
2022/04/26 10:31:42;;;;;;;139.52;16.90;;;10.40;99.90;;;;;;5061961;28;20399;-89
2022/04/26 10:34:31;;;;;;;511.17;71.63;;;10.30;99.90;;;;;;5090448;28;20392;-88
2022/04/26 10:37:22;;;;;;;222.88;41.47;;;10.10;99.90;;;;;;5090133;28;20431;-88
2022/04/26 10:40:02;;;;;;;235.55;24.38;;;10.00;99.90;;;;;;5090268;28;20924;-88
2022/04/26 10:42:35;;;;;;;297.25;39.83;;;9.90;99.90;;;;;;5090352;28;20388;-88
2022/04/26 10:45:11;;;;;;;11.10;1.00;;;9.90;99.90;;;;;;5089955;28;20392;-89
2022/04/26 10:47:40;;;;;;;208.88;40.22;;;9.90;99.90;;;;;;5080487;28;20390;-89
2022/04/26 10:50:09;;;;;;;55.50;7.40;;;10.00;99.90;;;;;;5071000;28;20791;-88
2022/04/26 10:52:40;;;;;;;200.48;24.73;;;10.10;99.90;;;;;;5071503;28;20443;-88
2022/04/26 10:55:10;;;;;;;139.50;14.70;;;10.20;99.90;;;;;;5088265;28;20402;-89
2022/04/26 10:57:41;;;;;;;225.35;18.05;;;10.20;99.90;;;;;;5073548;28;20426;-88
2022/04/26 11:00:17;;;;;;;183.43;16.80;;;10.10;99.90;;;;;;5074087;28;20896;-88
2022/04/26 11:02:50;;;;;;;121.30;17.50;;;10.00;99.90;;;;;;5074783;28;20390;-89
2022/04/26 11:05:30;;;;;;;353.30;45.73;;;10.00;99.90;;;;;;5093939;28;20385;-89
2022/04/26 11:07:59;;;;;;;521.28;54.97;;;10.00;99.90;;;;;;5094039;28;20419;-91
2022/04/26 11:10:28;;;;;;;310.05;31.10;;;10.00;99.90;;;;;;5065115;28;20865;-89
2022/04/26 11:12:56;;;;;;;170.90;20.80;;;10.10;99.90;;;;;;5090360;28;20392;-88
2022/04/26 11:15:25;;;;;;;503.08;62.13;;;10.10;99.90;;;;;;5077473;28;20912;-89
2022/04/26 11:17:55;;;;;;;327.73;34.87;;;10.10;99.90;;;;;;5073640;28;20390;-89
2022/04/26 11:20:25;;;;;;;629.75;58.67;;;10.10;99.90;;;;;;5090553;28;20384;-88
2022/04/26 11:22:58;;;;;;;287.30;29.80;;;10.10;99.90;;;;;;5074392;28;20414;-89
2022/04/26 11:28:17;;;;;;;363.42;34.92;;;10.00;99.90;;;;;;5106579;27;20481;-89
2022/04/26 11:30:47;;;;;;;83.05;12.60;;;10.00;99.90;;;;;;5076598;28;20443;-89
2022/04/26 11:33:22;;;;;;;187.75;21.55;;;10.00;99.90;;;;;;5078559;28;20780;-88
2022/04/26 11:35:57;;;;;;;127.37;11.10;;;10.00;99.90;;;;;;5093427;28;20791;-90
2022/04/26 11:38:27;;;;;;;272.95;32.00;;;10.10;99.90;;;;;;5073277;28;20456;-90
2022/04/26 11:41:02;;;;;;;201.77;19.97;;;10.30;99.90;;;;;;5076378;28;20491;-88
2022/04/26 11:43:33;;;;;;;133.65;13.85;;;10.30;99.90;;;;;;5087926;28;20450;-89
2022/04/26 11:46:02;;;;;;;7.45;0.90;;;10.40;99.90;;;;;;5082198;28;20402;-90
2022/04/26 11:48:34;;;;;;;232.10;23.77;;;10.40;99.90;;;;;;5056626;28;20815;-88
2022/04/26 11:51:04;;;;;;;314.83;31.77;;;10.40;99.90;;;;;;5091918;28;20393;-90
2022/04/26 11:53:36;;;;;;;195.10;18.70;;;10.30;99.90;;;;;;5092557;28;20403;-88
2022/04/26 11:56:06;;;;;;;677.83;91.63;;;10.20;99.90;;;;;;5089638;28;20439;-89
2022/04/26 11:58:38;;;;;;;872.60;90.25;;;10.20;99.90;;;;;;5089498;28;20407;-89
2022/04/26 12:01:18;;;;;;;618.50;68.77;;;10.20;99.90;;;;;;5082209;28;20989;-88
2022/04/26 12:03:52;;;;;;;315.80;36.20;;;10.10;99.90;;;;;;5078167;28;20394;-88
2022/04/26 12:06:26;;;;;;;152.25;17.35;;;10.20;99.90;;;;;;5070472;28;20465;-89
2022/04/26 12:08:56;;;;;;;902.50;80.88;;;10.10;99.90;;;;;;5082917;28;20882;-88
2022/04/26 12:11:26;;;;;;;1999.90;139.07;;;10.20;99.90;;;;;;5079369;28;20384;-88
2022/04/26 12:14:08;;;;;;;174.05;15.00;;;10.30;99.90;;;;;;5092210;28;20382;-88
2022/04/26 12:16:44;;;;;;;458.73;47.70;;;10.30;99.90;;;;;;5091753;28;20479;-88
2022/04/26 12:19:13;;;;;;;1174.35;67.47;;;10.20;99.90;;;;;;5075398;28;20429;-88
2022/04/26 12:21:48;;;;;;;72.50;6.30;;;10.20;99.90;;;;;;5080135;28;20390;-87
2022/04/26 12:24:17;;;;;;;394.60;50.60;;;10.10;99.90;;;;;;5085782;28;20392;-88
2022/04/26 12:27:02;;;;;;;344.38;28.92;;;10.20;99.90;;;;;;5076598;28;20384;-89
2022/04/26 12:29:37;;;;;;;260.07;23.30;;;10.30;99.90;;;;;;5081039;28;20920;-89
2022/04/26 12:32:17;;;;;;;520.38;41.00;;;10.40;99.90;;;;;;5074542;28;20820;-88
2022/04/26 12:34:52;;;;;;;71.40;6.70;;;10.60;99.90;;;;;;5089636;28;20389;-89
2022/04/26 12:37:29;;;;;;;239.73;27.70;;;10.90;99.90;;;;;;5072353;28;20482;-89
2022/04/26 12:40:10;;;;;;;1156.88;94.95;;;10.90;99.90;;;;;;5072321;28;20382;-89
2022/04/26 12:42:39;;;;;;;331.90;36.65;;;10.90;99.90;;;;;;5072218;28;20390;-87
2022/04/26 12:45:22;;;;;;;81.72;5.93;;;10.70;99.90;;;;;;5057014;28;20489;-87
2022/04/26 12:50:54;;;;;;;1038.43;86.67;;;10.60;99.90;;;;;;5091959;28;20388;-90
2022/04/26 12:53:25;;;;;;;552.17;40.20;;;11.10;99.90;;;;;;5091962;28;20388;-89
2022/04/26 12:55:53;;;;;;;1084.85;97.00;;;11.70;99.90;;;;;;5091784;28;20916;-89
2022/04/26 12:58:38;;;;;;;376.60;36.05;;;11.90;99.90;;;;;;5070292;28;20406;-91
2022/04/26 13:01:07;;;;;;;450.27;39.30;;;12.10;99.90;;;;;;5071381;28;20475;-90
2022/04/26 13:03:36;;;;;;;184.95;16.80;;;12.10;99.90;;;;;;5092071;28;20770;-90
2022/04/26 13:06:09;;;;;;;728.95;89.20;;;12.30;99.90;;;;;;5091812;28;20419;-90
2022/04/26 13:08:57;;;;;;;276.75;36.58;;;12.60;99.90;;;;;;5074955;28;20989;-90
2022/04/26 13:11:33;;;;;;;690.85;58.85;;;12.70;99.90;;;;;;5090702;28;20386;-90
2022/04/26 13:14:00;;;;;;;171.07;14.55;;;12.70;99.90;;;;;;5090534;28;20404;-90
2022/04/26 13:16:28;;;;;;;499.00;33.67;;;12.40;99.90;;;;;;5091927;28;20487;-90
2022/04/26 13:18:55;;;;;;;612.63;42.92;;;12.50;99.90;;;;;;5091625;28;20400;-90
2022/04/26 13:21:23;;;;;;;198.32;20.02;;;12.70;99.90;;;;;;5091611;28;20394;-89
2022/04/26 13:23:52;;;;;;;503.30;54.07;;;12.80;99.90;;;;;;5091458;28;20769;-88
2022/04/26 13:26:21;;;;;;;573.10;41.25;;;12.60;99.90;;;;;;5091261;28;20454;-88
2022/04/26 13:28:49;;;;;;;511.92;37.67;;;12.50;99.90;;;;;;5100819;28;20450;-89
2022/04/26 13:31:16;;;;;;;602.80;45.42;;;12.40;99.90;;;;;;5076235;28;21013;-88
2022/04/26 13:33:46;;;;;;;605.30;37.00;;;12.50;99.90;;;;;;5074398;28;20388;-88
2022/04/26 13:36:17;;;;;;;627.23;56.33;;;12.50;99.90;;;;;;5090995;28;20396;-88
2022/04/26 13:38:47;;;;;;;62.83;5.30;;;12.30;99.90;;;;;;5087553;28;20456;-89
2022/04/26 13:41:16;;;;;;;481.45;37.63;;;12.00;99.90;;;;;;5070853;28;20394;-87
2022/04/26 13:43:48;;;;;;;151.10;15.70;;;12.00;99.90;;;;;;5063951;28;20391;-88
2022/04/26 13:46:18;;;;;;;72.32;7.60;;;12.00;99.90;;;;;;5087587;28;20394;-88
2022/04/26 13:48:47;;;;;;;996.80;63.60;;;12.10;99.90;;;;;;5072303;28;20398;-88
2022/04/26 13:51:15;;;;;;;862.60;54.23;;;12.30;99.90;;;;;;5090752;28;20385;-88
2022/04/26 13:53:43;;;;;;;111.72;15.48;;;12.20;99.90;;;;;;5090676;28;20782;-88
2022/04/26 13:56:11;;;;;;;1194.70;71.18;;;11.90;99.90;;;;;;5073745;28;20446;-89
2022/04/26 13:58:39;;;;;;;815.45;57.90;;;11.80;99.90;;;;;;5073654;28;20474;-89
2022/04/26 14:01:07;;;;;;;617.27;40.77;;;11.70;99.90;;;;;;5090621;28;20419;-89
2022/04/26 14:03:35;;;;;;;103.67;9.27;;;11.70;99.90;;;;;;5073648;28;20407;-89
2022/04/26 14:06:03;;;;;;;167.85;19.08;;;12.10;99.90;;;;;;5090820;28;20479;-88
2022/04/26 14:08:31;;;;;;;894.60;67.40;;;12.00;99.90;;;;;;5091070;28;20515;-88
2022/04/26 14:11:00;;;;;;;109.83;13.57;;;11.70;99.90;;;;;;5090174;28;20442;-87
2022/04/26 14:13:27;;;;;;;206.63;17.88;;;11.70;99.90;;;;;;5090430;28;20741;-87
2022/04/26 14:24:14;;;;;;;215.52;33.80;;;11.80;99.90;;;;;;5090397;28;20392;-88
2022/04/26 14:26:42;;;;;;;331.17;49.80;;;11.70;99.90;;;;;;5077545;28;20453;-87
2022/04/26 14:29:10;;;;;;;221.40;21.08;;;11.60;99.90;;;;;;5094236;28;20404;-88
2022/04/26 14:31:45;;;;;;;191.15;27.50;;;11.50;99.90;;;;;;5094541;28;20391;-87
2022/04/26 14:34:14;;;;;;;448.83;33.00;;;11.50;99.90;;;;;;5080622;28;20868;-89
2022/04/26 14:36:42;;;;;;;491.17;43.15;;;11.70;99.90;;;;;;5090017;28;20411;-87
2022/04/26 14:39:25;;;;;;;127.60;13.75;;;11.70;99.90;;;;;;5074508;28;20398;-88
2022/04/26 14:41:53;;;;;;;66.60;6.60;;;11.50;99.90;;;;;;5065716;28;20810;-88
2022/04/26 14:44:21;;;;;;;7.60;0.88;;;11.40;99.90;;;;;;5089250;28;20396;-88
2022/04/26 14:46:49;;;;;;;32.35;2.45;;;11.40;99.90;;;;;;5069880;28;20798;-87
2022/04/26 14:49:17;;;;;;;254.32;15.32;;;11.60;99.90;;;;;;5083877;28;20426;-86
2022/04/26 14:51:46;;;;;;;193.75;19.58;;;11.60;99.90;;;;;;5090642;28;20983;-88
2022/04/26 14:54:13;;;;;;;445.80;30.58;;;11.60;99.90;;;;;;5084648;28;20896;-87
2022/04/26 14:56:41;;;;;;;234.10;27.42;;;11.50;99.90;;;;;;5073093;28;20470;-87
2022/04/26 14:59:15;;;;;;;157.18;15.57;;;11.50;99.90;;;;;;5075140;28;20409;-88
2022/04/26 15:01:49;;;;;;;794.38;61.17;;;11.60;99.90;;;;;;5073824;28;20417;-88
2022/04/26 15:04:22;;;;;;;370.87;29.37;;;11.90;99.90;;;;;;5073803;28;20391;-87
2022/04/26 15:06:50;;;;;;;394.07;42.53;;;11.90;99.90;;;;;;5074893;28;20390;-87
2022/04/26 15:17:56;;;;;;;349.30;34.70;;;12.20;99.90;;;;;;5084811;28;20760;-88
2022/04/26 15:20:25;;;;;;;470.23;32.72;;;12.20;99.90;;;;;;5104592;28;20493;-88
2022/04/26 15:22:54;;;;;;;632.75;60.50;;;12.20;99.90;;;;;;5093196;28;20407;-88
2022/04/26 15:25:22;;;;;;;1481.63;111.15;;;12.40;99.90;;;;;;5093558;28;20431;-87
2022/04/26 15:27:50;;;;;;;907.65;92.25;;;12.30;99.90;;;;;;5076295;28;20737;-87
2022/04/26 15:30:18;;;;;;;272.50;30.17;;;12.20;99.90;;;;;;5080521;28;20402;-88
2022/04/26 15:32:45;;;;;;;69.28;7.22;;;12.40;99.90;;;;;;5073224;28;20399;-88
2022/04/26 15:35:14;;;;;;;331.33;34.75;;;12.30;99.90;;;;;;5061605;28;20739;-87
2022/04/26 15:37:41;;;;;;;425.23;42.63;;;12.30;99.90;;;;;;5072209;28;20389;-88
2022/04/26 15:40:11;;;;;;;236.35;28.15;;;12.30;99.90;;;;;;5067796;28;20390;-89
2022/04/26 15:42:38;;;;;;;194.68;21.30;;;12.40;99.90;;;;;;5076428;28;20412;-88
2022/04/26 15:45:06;;;;;;;209.63;19.23;;;12.40;99.90;;;;;;5093073;28;20426;-88
2022/04/26 15:47:35;;;;;;;212.55;19.15;;;12.20;99.90;;;;;;5094318;28;20410;-87
2022/04/26 15:50:05;;;;;;;160.48;18.17;;;12.00;99.90;;;;;;5093058;28;20403;-89
2022/04/26 15:52:34;;;;;;;265.73;23.77;;;11.90;99.90;;;;;;5092683;28;20384;-88
2022/04/26 15:55:02;;;;;;;308.95;23.77;;;11.80;99.90;;;;;;5092827;28;20385;-88
2022/04/26 15:57:30;;;;;;;10.27;1.10;;;11.70;99.90;;;;;;5092622;28;20397;-88
2022/04/26 16:00:00;;;;;;;68.85;5.30;;;11.70;99.90;;;;;;5094085;28;20483;-88
2022/04/26 16:02:28;;;;;;;223.73;21.50;;;11.70;99.90;;;;;;5092579;28;20435;-88
2022/04/26 16:04:56;;;;;;;28.60;2.60;;;11.70;99.90;;;;;;5092532;28;20381;-88
2022/04/26 16:07:24;;;;;;;393.17;53.75;;;11.70;99.90;;;;;;5092658;28;20508;-87
2022/04/26 16:21:04;;;;;;;95.00;8.57;;;11.10;99.90;;;;;;5092165;28;20750;-87
2022/04/26 16:23:32;;;;;;;11.40;0.60;;;11.00;99.90;;;;;;5075786;28;20933;-88
2022/04/26 16:26:02;;;;;;;101.13;9.40;;;11.00;99.90;;;;;;5093448;28;20430;-87
2022/04/26 16:28:30;;;;;;;0.77;0.40;;;11.00;99.90;;;;;;5070841;28;20393;-87
2022/04/26 16:30:58;;;;;;;254.90;27.57;;;10.90;99.90;;;;;;5059792;28;20404;-87
2022/04/26 16:33:26;;;;;;;150.60;17.55;;;10.80;99.90;;;;;;5072698;28;20394;-88
2022/04/26 16:35:54;;;;;;;109.55;10.00;;;10.90;99.90;;;;;;5085412;28;20750;-87
2022/04/26 16:38:22;;;;;;;511.50;32.25;;;10.80;99.90;;;;;;5088881;28;20794;-87
2022/04/26 16:40:50;;;;;;;484.98;45.75;;;10.80;99.90;;;;;;5087908;28;20397;-88
2022/04/26 16:43:18;;;;;;;24.55;2.20;;;10.70;99.90;;;;;;5072355;28;20435;-89
2022/04/26 16:45:48;;;;;;;248.18;26.52;;;10.70;99.90;;;;;;5072020;28;20894;-87
2022/04/26 16:48:22;;;;;;;296.35;33.65;;;10.50;99.90;;;;;;5071738;28;20393;-89
2022/04/26 16:50:50;;;;;;;107.00;10.40;;;10.40;99.90;;;;;;5070881;28;20447;-87
2022/04/26 16:53:18;;;;;;;128.43;17.00;;;10.40;99.90;;;;;;5080772;28;20401;-87
2022/04/26 16:55:46;;;;;;;38.75;2.92;;;10.40;99.90;;;;;;5071813;28;20479;-88
2022/04/26 16:58:16;;;;;;;197.57;12.68;;;10.40;99.90;;;;;;5066339;28;20399;-88
2022/04/26 17:00:46;;;;;;;296.50;41.10;;;10.30;99.90;;;;;;5073005;28;20884;-87
2022/04/26 17:03:15;;;;;;;194.07;19.58;;;10.30;99.90;;;;;;5085786;28;20898;-88